South Palm Beach, Florida
Current Conditions -  °F | °C
As of 7:53 PM on Monday 24 Nov 2014 (Local Time) from KPBI Reporting Station
Scattered Clouds Scattered Clouds  
Wind Chill: 81°   Ceiling: Unl
Heat Index: 88°   Visibility: 10mi
Dew Point: 77°   Wind: 9mph
Humidity: 88%   Direction: 170°S
Pressure: 30.01"   Gusts: NA
Location:  26.6941°N, 80.0379°W
Report Text: KPBI 250053Z 17008KT 150V320 10SM SCT035 SCT250 27/25 A3001 RMK AO2 SLP160 T02720250
Loading
Personal Weather Stations






























Interactive Weather Map New forecast layout! Learn more

10-Day Weather Forecast

Advertisements
Track Severe Weather on mobile